sensor_id;sensor_type;location;lat;lon;timestamp;P1;durP1;ratioP1;P2;durP2;ratioP2
64520;SDS011;50896;46.714;17.322;2023-06-10T00:02:06;7.75;;;2.97;;
64520;SDS011;50896;46.714;17.322;2023-06-10T00:04:33;6.45;;;2.85;;
64520;SDS011;50896;46.714;17.322;2023-06-10T00:07:01;7.72;;;2.80;;
64520;SDS011;50896;46.714;17.322;2023-06-10T00:09:29;5.15;;;2.65;;
64520;SDS011;50896;46.714;17.322;2023-06-10T00:11:56;8.25;;;3.22;;
64520;SDS011;50896;46.714;17.322;2023-06-10T00:14:26;7.50;;;3.00;;
64520;SDS011;50896;46.714;17.322;2023-06-10T00:16:53;3.80;;;2.70;;
64520;SDS011;50896;46.714;17.322;2023-06-10T00:19:20;5.85;;;2.90;;
64520;SDS011;50896;46.714;17.322;2023-06-10T00:21:52;3.72;;;2.97;;
64520;SDS011;50896;46.714;17.322;2023-06-10T00:24:19;4.43;;;2.80;;
64520;SDS011;50896;46.714;17.322;2023-06-10T00:26:46;3.40;;;3.10;;
64520;SDS011;50896;46.714;17.322;2023-06-10T00:29:12;3.80;;;2.88;;
64520;SDS011;50896;46.714;17.322;2023-06-10T00:31:40;4.05;;;2.95;;
64520;SDS011;50896;46.714;17.322;2023-06-10T00:34:07;3.45;;;2.97;;
64520;SDS011;50896;46.714;17.322;2023-06-10T00:36:34;4.25;;;3.35;;
64520;SDS011;50896;46.714;17.322;2023-06-10T00:39:04;4.18;;;2.63;;
64520;SDS011;50896;46.714;17.322;2023-06-10T00:41:31;6.75;;;2.90;;
64520;SDS011;50896;46.714;17.322;2023-06-10T00:44:00;5.83;;;3.30;;
64520;SDS011;50896;46.714;17.322;2023-06-10T00:46:27;9.27;;;3.55;;
64520;SDS011;50896;46.714;17.322;2023-06-10T00:48:54;5.85;;;3.28;;
64520;SDS011;50896;46.714;17.322;2023-06-10T00:51:21;4.80;;;2.85;;
64520;SDS011;50896;46.714;17.322;2023-06-10T00:53:49;7.72;;;3.22;;
64520;SDS011;50896;46.714;17.322;2023-06-10T00:56:16;7.43;;;3.88;;
64520;SDS011;50896;46.714;17.322;2023-06-10T00:58:43;7.47;;;2.72;;
64520;SDS011;50896;46.714;17.322;2023-06-10T01:01:11;4.75;;;3.00;;
64520;SDS011;50896;46.714;17.322;2023-06-10T01:03:39;8.68;;;3.35;;
64520;SDS011;50896;46.714;17.322;2023-06-10T01:06:09;7.93;;;3.53;;
64520;SDS011;50896;46.714;17.322;2023-06-10T01:08:43;5.65;;;3.05;;
64520;SDS011;50896;46.714;17.322;2023-06-10T01:11:21;6.18;;;3.30;;
64520;SDS011;50896;46.714;17.322;2023-06-10T01:13:53;7.53;;;2.97;;
64520;SDS011;50896;46.714;17.322;2023-06-10T01:16:22;9.60;;;3.65;;
64520;SDS011;50896;46.714;17.322;2023-06-10T01:18:50;10.75;;;4.45;;
64520;SDS011;50896;46.714;17.322;2023-06-10T01:21:22;6.88;;;3.58;;
64520;SDS011;50896;46.714;17.322;2023-06-10T01:23:53;6.07;;;3.53;;
64520;SDS011;50896;46.714;17.322;2023-06-10T01:26:23;7.45;;;3.42;;
64520;SDS011;50896;46.714;17.322;2023-06-10T01:28:59;4.90;;;3.30;;
64520;SDS011;50896;46.714;17.322;2023-06-10T01:34:07;6.85;;;3.92;;
64520;SDS011;50896;46.714;17.322;2023-06-10T01:36:37;5.43;;;3.20;;
64520;SDS011;50896;46.714;17.322;2023-06-10T01:39:07;7.80;;;3.35;;
64520;SDS011;50896;46.714;17.322;2023-06-10T01:41:35;7.75;;;3.40;;
64520;SDS011;50896;46.714;17.322;2023-06-10T01:44:03;6.35;;;3.28;;
64520;SDS011;50896;46.714;17.322;2023-06-10T01:46:30;7.68;;;3.65;;
64520;SDS011;50896;46.714;17.322;2023-06-10T01:48:57;6.40;;;3.30;;
64520;SDS011;50896;46.714;17.322;2023-06-10T01:51:23;8.57;;;3.42;;
64520;SDS011;50896;46.714;17.322;2023-06-10T01:53:50;10.10;;;3.80;;
64520;SDS011;50896;46.714;17.322;2023-06-10T01:56:19;5.60;;;3.42;;
64520;SDS011;50896;46.714;17.322;2023-06-10T01:58:47;8.70;;;3.28;;
64520;SDS011;50896;46.714;17.322;2023-06-10T02:01:13;7.28;;;3.67;;
64520;SDS011;50896;46.714;17.322;2023-06-10T02:03:41;11.60;;;3.80;;
64520;SDS011;50896;46.714;17.322;2023-06-10T02:06:08;7.05;;;3.33;;
64520;SDS011;50896;46.714;17.322;2023-06-10T02:08:34;10.98;;;3.90;;
64520;SDS011;50896;46.714;17.322;2023-06-10T02:11:01;10.00;;;3.70;;
64520;SDS011;50896;46.714;17.322;2023-06-10T02:13:29;8.75;;;3.50;;
64520;SDS011;50896;46.714;17.322;2023-06-10T02:15:56;10.13;;;3.45;;
64520;SDS011;50896;46.714;17.322;2023-06-10T02:18:28;10.10;;;3.85;;
64520;SDS011;50896;46.714;17.322;2023-06-10T02:20:55;4.93;;;3.42;;
64520;SDS011;50896;46.714;17.322;2023-06-10T02:23:21;6.10;;;3.55;;
64520;SDS011;50896;46.714;17.322;2023-06-10T02:25:48;8.65;;;3.47;;
64520;SDS011;50896;46.714;17.322;2023-06-10T02:28:16;7.97;;;3.58;;
64520;SDS011;50896;46.714;17.322;2023-06-10T02:30:44;9.07;;;3.38;;
64520;SDS011;50896;46.714;17.322;2023-06-10T02:33:11;5.82;;;3.85;;
64520;SDS011;50896;46.714;17.322;2023-06-10T02:35:39;7.97;;;3.42;;
64520;SDS011;50896;46.714;17.322;2023-06-10T02:38:06;6.90;;;4.30;;
64520;SDS011;50896;46.714;17.322;2023-06-10T02:40:34;7.00;;;3.90;;
64520;SDS011;50896;46.714;17.322;2023-06-10T02:43:01;8.05;;;3.95;;
64520;SDS011;50896;46.714;17.322;2023-06-10T02:45:28;6.47;;;3.45;;
64520;SDS011;50896;46.714;17.322;2023-06-10T02:47:57;10.83;;;3.97;;
64520;SDS011;50896;46.714;17.322;2023-06-10T02:50:24;11.38;;;3.65;;
64520;SDS011;50896;46.714;17.322;2023-06-10T02:53:05;9.32;;;3.72;;
64520;SDS011;50896;46.714;17.322;2023-06-10T02:55:34;9.93;;;4.00;;
64520;SDS011;50896;46.714;17.322;2023-06-10T02:58:04;6.43;;;3.95;;
64520;SDS011;50896;46.714;17.322;2023-06-10T03:00:32;6.70;;;3.83;;
64520;SDS011;50896;46.714;17.322;2023-06-10T03:02:59;5.47;;;3.92;;
64520;SDS011;50896;46.714;17.322;2023-06-10T03:05:34;6.18;;;4.05;;
64520;SDS011;50896;46.714;17.322;2023-06-10T03:08:03;5.87;;;3.87;;
64520;SDS011;50896;46.714;17.322;2023-06-10T03:13:01;11.13;;;4.35;;
64520;SDS011;50896;46.714;17.322;2023-06-10T03:15:28;5.65;;;4.00;;
64520;SDS011;50896;46.714;17.322;2023-06-10T03:18:00;8.30;;;4.10;;
64520;SDS011;50896;46.714;17.322;2023-06-10T03:20:28;4.65;;;3.55;;
64520;SDS011;50896;46.714;17.322;2023-06-10T03:22:56;6.53;;;3.72;;
64520;SDS011;50896;46.714;17.322;2023-06-10T03:25:23;6.63;;;3.70;;
64520;SDS011;50896;46.714;17.322;2023-06-10T03:30:20;4.60;;;3.22;;
64520;SDS011;50896;46.714;17.322;2023-06-10T03:32:49;5.13;;;3.58;;
64520;SDS011;50896;46.714;17.322;2023-06-10T03:35:19;8.38;;;3.80;;
64520;SDS011;50896;46.714;17.322;2023-06-10T03:37:46;7.38;;;3.50;;
64520;SDS011;50896;46.714;17.322;2023-06-10T03:40:13;4.13;;;3.58;;
64520;SDS011;50896;46.714;17.322;2023-06-10T03:42:43;6.43;;;3.60;;
64520;SDS011;50896;46.714;17.322;2023-06-10T03:47:40;6.38;;;3.63;;
64520;SDS011;50896;46.714;17.322;2023-06-10T03:50:10;4.05;;;3.65;;
64520;SDS011;50896;46.714;17.322;2023-06-10T03:52:39;9.45;;;4.32;;
64520;SDS011;50896;46.714;17.322;2023-06-10T03:55:09;6.65;;;3.92;;
64520;SDS011;50896;46.714;17.322;2023-06-10T03:57:40;5.50;;;3.85;;
64520;SDS011;50896;46.714;17.322;2023-06-10T04:00:07;6.18;;;3.83;;
64520;SDS011;50896;46.714;17.322;2023-06-10T04:02:41;4.70;;;3.97;;
64520;SDS011;50896;46.714;17.322;2023-06-10T04:05:20;9.15;;;4.22;;
64520;SDS011;50896;46.714;17.322;2023-06-10T04:07:48;8.48;;;4.10;;
64520;SDS011;50896;46.714;17.322;2023-06-10T04:10:15;6.35;;;3.65;;
64520;SDS011;50896;46.714;17.322;2023-06-10T04:12:42;6.82;;;3.92;;
64520;SDS011;50896;46.714;17.322;2023-06-10T04:15:10;9.07;;;4.70;;
64520;SDS011;50896;46.714;17.322;2023-06-10T04:17:37;10.23;;;4.53;;
64520;SDS011;50896;46.714;17.322;2023-06-10T04:20:05;7.40;;;4.20;;
64520;SDS011;50896;46.714;17.322;2023-06-10T04:22:35;11.52;;;4.38;;
64520;SDS011;50896;46.714;17.322;2023-06-10T04:25:03;10.45;;;4.35;;
64520;SDS011;50896;46.714;17.322;2023-06-10T04:27:30;8.23;;;4.30;;
64520;SDS011;50896;46.714;17.322;2023-06-10T04:29:57;5.97;;;4.03;;
64520;SDS011;50896;46.714;17.322;2023-06-10T04:32:24;9.35;;;5.22;;
64520;SDS011;50896;46.714;17.322;2023-06-10T04:34:51;6.80;;;4.55;;
64520;SDS011;50896;46.714;17.322;2023-06-10T04:37:18;9.07;;;5.30;;
64520;SDS011;50896;46.714;17.322;2023-06-10T04:39:44;7.03;;;4.43;;
64520;SDS011;50896;46.714;17.322;2023-06-10T04:42:11;11.73;;;4.22;;
64520;SDS011;50896;46.714;17.322;2023-06-10T04:44:39;9.55;;;4.22;;
64520;SDS011;50896;46.714;17.322;2023-06-10T04:47:07;9.10;;;4.72;;
64520;SDS011;50896;46.714;17.322;2023-06-10T04:49:34;7.68;;;4.78;;
64520;SDS011;50896;46.714;17.322;2023-06-10T04:52:02;7.72;;;4.22;;
64520;SDS011;50896;46.714;17.322;2023-06-10T04:54:35;11.13;;;4.68;;
64520;SDS011;50896;46.714;17.322;2023-06-10T04:57:02;6.13;;;4.55;;
64520;SDS011;50896;46.714;17.322;2023-06-10T04:59:29;7.57;;;4.68;;
64520;SDS011;50896;46.714;17.322;2023-06-10T05:01:56;9.25;;;4.18;;
64520;SDS011;50896;46.714;17.322;2023-06-10T05:04:23;5.55;;;4.28;;
64520;SDS011;50896;46.714;17.322;2023-06-10T05:06:50;7.25;;;4.25;;
64520;SDS011;50896;46.714;17.322;2023-06-10T05:09:16;10.13;;;4.43;;
64520;SDS011;50896;46.714;17.322;2023-06-10T05:11:43;5.88;;;5.28;;
64520;SDS011;50896;46.714;17.322;2023-06-10T05:14:11;7.78;;;6.03;;
64520;SDS011;50896;46.714;17.322;2023-06-10T05:16:38;9.07;;;5.80;;
64520;SDS011;50896;46.714;17.322;2023-06-10T05:19:05;7.13;;;6.03;;
64520;SDS011;50896;46.714;17.322;2023-06-10T05:21:34;7.43;;;5.95;;
64520;SDS011;50896;46.714;17.322;2023-06-10T05:24:01;8.20;;;5.82;;
64520;SDS011;50896;46.714;17.322;2023-06-10T05:26:28;6.53;;;5.82;;
64520;SDS011;50896;46.714;17.322;2023-06-10T05:28:58;6.70;;;6.00;;
64520;SDS011;50896;46.714;17.322;2023-06-10T05:31:25;7.25;;;5.35;;
64520;SDS011;50896;46.714;17.322;2023-06-10T05:33:52;10.02;;;6.40;;
64520;SDS011;50896;46.714;17.322;2023-06-10T05:36:19;7.75;;;5.55;;
64520;SDS011;50896;46.714;17.322;2023-06-10T05:38:46;8.02;;;6.13;;
64520;SDS011;50896;46.714;17.322;2023-06-10T05:41:13;8.52;;;6.60;;
64520;SDS011;50896;46.714;17.322;2023-06-10T05:43:40;7.40;;;6.10;;
64520;SDS011;50896;46.714;17.322;2023-06-10T05:46:07;7.95;;;6.28;;
64520;SDS011;50896;46.714;17.322;2023-06-10T05:48:34;9.32;;;5.60;;
64520;SDS011;50896;46.714;17.322;2023-06-10T05:51:01;9.02;;;5.90;;
64520;SDS011;50896;46.714;17.322;2023-06-10T05:53:28;6.10;;;5.30;;
64520;SDS011;50896;46.714;17.322;2023-06-10T05:55:55;7.63;;;5.50;;
64520;SDS011;50896;46.714;17.322;2023-06-10T05:58:24;7.15;;;5.50;;
64520;SDS011;50896;46.714;17.322;2023-06-10T06:00:51;7.25;;;5.35;;
64520;SDS011;50896;46.714;17.322;2023-06-10T06:03:18;5.93;;;5.15;;
64520;SDS011;50896;46.714;17.322;2023-06-10T06:05:45;6.43;;;5.78;;
64520;SDS011;50896;46.714;17.322;2023-06-10T06:08:12;6.93;;;5.47;;
64520;SDS011;50896;46.714;17.322;2023-06-10T06:10:45;6.43;;;4.82;;
64520;SDS011;50896;46.714;17.322;2023-06-10T06:13:14;5.80;;;5.07;;
64520;SDS011;50896;46.714;17.322;2023-06-10T06:15:41;8.77;;;5.50;;
64520;SDS011;50896;46.714;17.322;2023-06-10T06:18:08;5.70;;;5.10;;
64520;SDS011;50896;46.714;17.322;2023-06-10T06:20:35;8.65;;;5.50;;
64520;SDS011;50896;46.714;17.322;2023-06-10T06:23:02;10.23;;;5.50;;
64520;SDS011;50896;46.714;17.322;2023-06-10T06:25:29;7.80;;;5.57;;
64520;SDS011;50896;46.714;17.322;2023-06-10T06:27:56;6.15;;;5.55;;
64520;SDS011;50896;46.714;17.322;2023-06-10T06:30:23;6.50;;;5.00;;
64520;SDS011;50896;46.714;17.322;2023-06-10T06:32:49;6.30;;;5.30;;
64520;SDS011;50896;46.714;17.322;2023-06-10T06:35:18;7.70;;;5.25;;
64520;SDS011;50896;46.714;17.322;2023-06-10T06:37:45;6.20;;;4.70;;
64520;SDS011;50896;46.714;17.322;2023-06-10T06:40:24;7.50;;;5.70;;
64520;SDS011;50896;46.714;17.322;2023-06-10T06:42:51;6.80;;;5.22;;
64520;SDS011;50896;46.714;17.322;2023-06-10T06:45:52;6.55;;;5.47;;
64520;SDS011;50896;46.714;17.322;2023-06-10T06:48:19;5.93;;;4.63;;
64520;SDS011;50896;46.714;17.322;2023-06-10T06:50:47;5.60;;;4.90;;
64520;SDS011;50896;46.714;17.322;2023-06-10T06:53:14;5.65;;;5.00;;
64520;SDS011;50896;46.714;17.322;2023-06-10T06:55:41;4.97;;;4.57;;
64520;SDS011;50896;46.714;17.322;2023-06-10T06:58:08;7.45;;;4.90;;
64520;SDS011;50896;46.714;17.322;2023-06-10T07:00:34;6.85;;;4.30;;
64520;SDS011;50896;46.714;17.322;2023-06-10T07:03:02;7.68;;;5.38;;
64520;SDS011;50896;46.714;17.322;2023-06-10T07:05:28;5.82;;;4.63;;
64520;SDS011;50896;46.714;17.322;2023-06-10T07:07:57;7.30;;;4.97;;
64520;SDS011;50896;46.714;17.322;2023-06-10T07:10:24;8.60;;;5.00;;
64520;SDS011;50896;46.714;17.322;2023-06-10T07:12:52;7.25;;;5.05;;
64520;SDS011;50896;46.714;17.322;2023-06-10T07:15:19;6.10;;;4.50;;
64520;SDS011;50896;46.714;17.322;2023-06-10T07:17:47;6.95;;;5.35;;
64520;SDS011;50896;46.714;17.322;2023-06-10T07:20:13;5.65;;;5.05;;
64520;SDS011;50896;46.714;17.322;2023-06-10T07:22:41;6.85;;;5.50;;
64520;SDS011;50896;46.714;17.322;2023-06-10T07:25:08;6.97;;;5.22;;
64520;SDS011;50896;46.714;17.322;2023-06-10T07:27:36;8.43;;;5.97;;
64520;SDS011;50896;46.714;17.322;2023-06-10T07:30:04;7.05;;;5.93;;
64520;SDS011;50896;46.714;17.322;2023-06-10T07:35:00;5.65;;;4.95;;
64520;SDS011;50896;46.714;17.322;2023-06-10T07:37:27;6.07;;;5.47;;
64520;SDS011;50896;46.714;17.322;2023-06-10T07:39:54;7.30;;;5.93;;
64520;SDS011;50896;46.714;17.322;2023-06-10T07:42:22;6.65;;;5.47;;
64520;SDS011;50896;46.714;17.322;2023-06-10T07:44:49;9.43;;;6.53;;
64520;SDS011;50896;46.714;17.322;2023-06-10T07:47:16;6.45;;;5.65;;
64520;SDS011;50896;46.714;17.322;2023-06-10T07:49:43;7.00;;;5.72;;
64520;SDS011;50896;46.714;17.322;2023-06-10T07:52:09;8.27;;;6.57;;
64520;SDS011;50896;46.714;17.322;2023-06-10T07:54:36;8.18;;;6.03;;
64520;SDS011;50896;46.714;17.322;2023-06-10T07:57:03;7.45;;;6.13;;
64520;SDS011;50896;46.714;17.322;2023-06-10T07:59:31;11.48;;;6.70;;
64520;SDS011;50896;46.714;17.322;2023-06-10T08:01:57;9.13;;;6.82;;
64520;SDS011;50896;46.714;17.322;2023-06-10T08:04:24;8.20;;;6.13;;
64520;SDS011;50896;46.714;17.322;2023-06-10T08:06:51;8.45;;;6.40;;
64520;SDS011;50896;46.714;17.322;2023-06-10T08:09:18;7.85;;;6.53;;
64520;SDS011;50896;46.714;17.322;2023-06-10T08:11:46;14.60;;;6.95;;
64520;SDS011;50896;46.714;17.322;2023-06-10T08:14:13;8.73;;;6.45;;
64520;SDS011;50896;46.714;17.322;2023-06-10T08:16:41;10.38;;;7.00;;
64520;SDS011;50896;46.714;17.322;2023-06-10T08:19:08;8.38;;;6.03;;
64520;SDS011;50896;46.714;17.322;2023-06-10T08:21:35;8.55;;;6.85;;
64520;SDS011;50896;46.714;17.322;2023-06-10T08:24:06;8.43;;;6.00;;
64520;SDS011;50896;46.714;17.322;2023-06-10T08:26:34;6.47;;;5.40;;
64520;SDS011;50896;46.714;17.322;2023-06-10T08:29:00;6.80;;;5.57;;
64520;SDS011;50896;46.714;17.322;2023-06-10T08:31:27;8.65;;;6.00;;
64520;SDS011;50896;46.714;17.322;2023-06-10T08:33:54;8.23;;;6.05;;
64520;SDS011;50896;46.714;17.322;2023-06-10T08:36:21;10.80;;;5.80;;
64520;SDS011;50896;46.714;17.322;2023-06-10T08:38:48;7.53;;;5.53;;
64520;SDS011;50896;46.714;17.322;2023-06-10T08:41:17;6.70;;;5.72;;
64520;SDS011;50896;46.714;17.322;2023-06-10T08:43:56;6.47;;;5.20;;
64520;SDS011;50896;46.714;17.322;2023-06-10T08:46:30;8.23;;;6.55;;
64520;SDS011;50896;46.714;17.322;2023-06-10T08:49:00;7.03;;;5.82;;
64520;SDS011;50896;46.714;17.322;2023-06-10T08:51:32;9.10;;;6.82;;
64520;SDS011;50896;46.714;17.322;2023-06-10T08:54:01;8.18;;;6.60;;
64520;SDS011;50896;46.714;17.322;2023-06-10T08:56:32;10.75;;;7.15;;
64520;SDS011;50896;46.714;17.322;2023-06-10T08:59:06;7.45;;;6.75;;
64520;SDS011;50896;46.714;17.322;2023-06-10T09:01:33;9.23;;;6.80;;
64520;SDS011;50896;46.714;17.322;2023-06-10T09:04:00;8.65;;;6.35;;
64520;SDS011;50896;46.714;17.322;2023-06-10T09:06:28;7.82;;;6.20;;
64520;SDS011;50896;46.714;17.322;2023-06-10T09:08:55;8.15;;;6.00;;
64520;SDS011;50896;46.714;17.322;2023-06-10T09:11:27;6.90;;;5.60;;
64520;SDS011;50896;46.714;17.322;2023-06-10T09:13:53;6.53;;;5.82;;
64520;SDS011;50896;46.714;17.322;2023-06-10T09:16:20;7.65;;;5.78;;
64520;SDS011;50896;46.714;17.322;2023-06-10T09:18:47;7.70;;;5.55;;
64520;SDS011;50896;46.714;17.322;2023-06-10T09:21:15;7.22;;;5.32;;
64520;SDS011;50896;46.714;17.322;2023-06-10T09:23:43;6.53;;;5.15;;
64520;SDS011;50896;46.714;17.322;2023-06-10T09:26:10;5.45;;;4.95;;
64520;SDS011;50896;46.714;17.322;2023-06-10T09:28:37;7.75;;;5.22;;
64520;SDS011;50896;46.714;17.322;2023-06-10T09:31:06;4.60;;;4.20;;
64520;SDS011;50896;46.714;17.322;2023-06-10T09:33:39;4.78;;;4.25;;
64520;SDS011;50896;46.714;17.322;2023-06-10T09:36:07;6.60;;;4.90;;
64520;SDS011;50896;46.714;17.322;2023-06-10T09:38:34;5.55;;;4.95;;
64520;SDS011;50896;46.714;17.322;2023-06-10T09:41:02;4.68;;;4.28;;
64520;SDS011;50896;46.714;17.322;2023-06-10T09:43:42;4.45;;;4.03;;
64520;SDS011;50896;46.714;17.322;2023-06-10T09:46:16;5.57;;;3.92;;
64520;SDS011;50896;46.714;17.322;2023-06-10T09:48:45;5.05;;;3.88;;
64520;SDS011;50896;46.714;17.322;2023-06-10T09:51:13;6.57;;;3.57;;
64520;SDS011;50896;46.714;17.322;2023-06-10T09:53:42;3.90;;;3.60;;
64520;SDS011;50896;46.714;17.322;2023-06-10T09:56:11;3.70;;;3.35;;
64520;SDS011;50896;46.714;17.322;2023-06-10T09:58:39;5.22;;;3.50;;
64520;SDS011;50896;46.714;17.322;2023-06-10T10:03:45;3.65;;;3.17;;
64520;SDS011;50896;46.714;17.322;2023-06-10T10:06:15;5.18;;;3.47;;
64520;SDS011;50896;46.714;17.322;2023-06-10T10:08:43;4.60;;;3.28;;
64520;SDS011;50896;46.714;17.322;2023-06-10T10:11:11;4.85;;;3.58;;
64520;SDS011;50896;46.714;17.322;2023-06-10T10:13:39;6.72;;;3.33;;
64520;SDS011;50896;46.714;17.322;2023-06-10T10:16:10;3.72;;;3.22;;
64520;SDS011;50896;46.714;17.322;2023-06-10T10:18:39;3.38;;;3.08;;
64520;SDS011;50896;46.714;17.322;2023-06-10T10:21:11;4.22;;;3.30;;
64520;SDS011;50896;46.714;17.322;2023-06-10T10:24:01;4.22;;;2.83;;
64520;SDS011;50896;46.714;17.322;2023-06-10T10:26:32;3.25;;;2.95;;
64520;SDS011;50896;46.714;17.322;2023-06-10T10:31:32;4.00;;;3.30;;
64520;SDS011;50896;46.714;17.322;2023-06-10T10:34:02;4.07;;;3.47;;
64520;SDS011;50896;46.714;17.322;2023-06-10T10:36:33;10.60;;;4.00;;
64520;SDS011;50896;46.714;17.322;2023-06-10T10:39:02;5.20;;;3.78;;
64520;SDS011;50896;46.714;17.322;2023-06-10T10:41:31;5.10;;;3.60;;
64520;SDS011;50896;46.714;17.322;2023-06-10T10:43:59;4.15;;;3.30;;
64520;SDS011;50896;46.714;17.322;2023-06-10T10:46:27;5.10;;;3.90;;
64520;SDS011;50896;46.714;17.322;2023-06-10T10:48:54;4.25;;;3.72;;
64520;SDS011;50896;46.714;17.322;2023-06-10T10:51:22;5.40;;;3.47;;
64520;SDS011;50896;46.714;17.322;2023-06-10T10:56:37;4.45;;;3.90;;
64520;SDS011;50896;46.714;17.322;2023-06-10T10:59:04;4.55;;;3.28;;
64520;SDS011;50896;46.714;17.322;2023-06-10T11:01:41;3.50;;;3.20;;
64520;SDS011;50896;46.714;17.322;2023-06-10T11:04:09;4.07;;;3.53;;
64520;SDS011;50896;46.714;17.322;2023-06-10T11:06:36;4.93;;;3.78;;
64520;SDS011;50896;46.714;17.322;2023-06-10T11:11:56;4.53;;;4.00;;
64520;SDS011;50896;46.714;17.322;2023-06-10T11:14:28;5.55;;;3.72;;
64520;SDS011;50896;46.714;17.322;2023-06-10T11:16:56;7.32;;;3.95;;
64520;SDS011;50896;46.714;17.322;2023-06-10T11:19:31;5.28;;;4.28;;
64520;SDS011;50896;46.714;17.322;2023-06-10T11:22:03;4.97;;;3.75;;
64520;SDS011;50896;46.714;17.322;2023-06-10T11:24:32;6.57;;;4.25;;
64520;SDS011;50896;46.714;17.322;2023-06-10T11:32:34;5.18;;;3.63;;
64520;SDS011;50896;46.714;17.322;2023-06-10T11:35:06;4.05;;;3.65;;
64520;SDS011;50896;46.714;17.322;2023-06-10T11:37:34;5.07;;;3.60;;
64520;SDS011;50896;46.714;17.322;2023-06-10T11:40:02;5.70;;;3.95;;
64520;SDS011;50896;46.714;17.322;2023-06-10T11:42:29;4.78;;;3.55;;
64520;SDS011;50896;46.714;17.322;2023-06-10T11:44:56;5.18;;;3.60;;
64520;SDS011;50896;46.714;17.322;2023-06-10T11:47:23;4.43;;;3.72;;
64520;SDS011;50896;46.714;17.322;2023-06-10T11:49:56;4.20;;;3.80;;
64520;SDS011;50896;46.714;17.322;2023-06-10T11:52:28;4.30;;;3.90;;
64520;SDS011;50896;46.714;17.322;2023-06-10T11:54:57;4.28;;;3.65;;
64520;SDS011;50896;46.714;17.322;2023-06-10T11:57:24;4.75;;;4.05;;
64520;SDS011;50896;46.714;17.322;2023-06-10T11:59:51;4.25;;;3.83;;
64520;SDS011;50896;46.714;17.322;2023-06-10T12:02:18;4.32;;;3.92;;
64520;SDS011;50896;46.714;17.322;2023-06-10T12:04:46;6.60;;;4.43;;
64520;SDS011;50896;46.714;17.322;2023-06-10T12:07:19;6.80;;;4.10;;
64520;SDS011;50896;46.714;17.322;2023-06-10T12:09:46;7.72;;;4.57;;
64520;SDS011;50896;46.714;17.322;2023-06-10T12:12:13;6.30;;;4.97;;
64520;SDS011;50896;46.714;17.322;2023-06-10T12:15:00;8.05;;;5.15;;
64520;SDS011;50896;46.714;17.322;2023-06-10T12:19:59;7.93;;;5.70;;
64520;SDS011;50896;46.714;17.322;2023-06-10T12:22:35;6.47;;;5.47;;
64520;SDS011;50896;46.714;17.322;2023-06-10T12:25:03;6.05;;;5.28;;
64520;SDS011;50896;46.714;17.322;2023-06-10T12:27:34;5.68;;;5.03;;
64520;SDS011;50896;46.714;17.322;2023-06-10T12:30:02;5.82;;;4.95;;
64520;SDS011;50896;46.714;17.322;2023-06-10T12:32:49;6.45;;;4.40;;
64520;SDS011;50896;46.714;17.322;2023-06-10T12:35:19;5.13;;;4.35;;
64520;SDS011;50896;46.714;17.322;2023-06-10T12:38:09;6.45;;;4.18;;
64520;SDS011;50896;46.714;17.322;2023-06-10T12:40:38;5.00;;;4.50;;
64520;SDS011;50896;46.714;17.322;2023-06-10T12:43:09;4.63;;;4.22;;
64520;SDS011;50896;46.714;17.322;2023-06-10T12:45:36;5.13;;;4.38;;
64520;SDS011;50896;46.714;17.322;2023-06-10T12:48:10;5.63;;;4.55;;
64520;SDS011;50896;46.714;17.322;2023-06-10T12:50:39;5.50;;;4.60;;
64520;SDS011;50896;46.714;17.322;2023-06-10T12:53:08;5.43;;;4.75;;
64520;SDS011;50896;46.714;17.322;2023-06-10T12:55:36;5.20;;;4.70;;
64520;SDS011;50896;46.714;17.322;2023-06-10T12:58:02;5.90;;;4.63;;
64520;SDS011;50896;46.714;17.322;2023-06-10T13:00:30;6.80;;;4.93;;
64520;SDS011;50896;46.714;17.322;2023-06-10T13:02:59;6.38;;;4.72;;
64520;SDS011;50896;46.714;17.322;2023-06-10T13:05:28;5.40;;;4.85;;
64520;SDS011;50896;46.714;17.322;2023-06-10T13:07:56;5.10;;;4.40;;
64520;SDS011;50896;46.714;17.322;2023-06-10T13:10:22;5.20;;;4.70;;
64520;SDS011;50896;46.714;17.322;2023-06-10T13:12:52;7.82;;;4.47;;
64520;SDS011;50896;46.714;17.322;2023-06-10T13:17:48;5.32;;;4.63;;
64520;SDS011;50896;46.714;17.322;2023-06-10T13:20:18;4.85;;;4.35;;
64520;SDS011;50896;46.714;17.322;2023-06-10T13:22:47;4.73;;;4.30;;
64520;SDS011;50896;46.714;17.322;2023-06-10T13:25:14;6.78;;;4.70;;
64520;SDS011;50896;46.714;17.322;2023-06-10T13:27:42;4.18;;;3.47;;
64520;SDS011;50896;46.714;17.322;2023-06-10T13:30:09;3.92;;;3.63;;
64520;SDS011;50896;46.714;17.322;2023-06-10T13:32:37;5.30;;;3.85;;
64520;SDS011;50896;46.714;17.322;2023-06-10T13:35:05;4.82;;;4.00;;
64520;SDS011;50896;46.714;17.322;2023-06-10T13:37:34;4.25;;;3.85;;
64520;SDS011;50896;46.714;17.322;2023-06-10T13:40:02;4.70;;;4.20;;
64520;SDS011;50896;46.714;17.322;2023-06-10T13:42:32;6.10;;;3.90;;
64520;SDS011;50896;46.714;17.322;2023-06-10T13:44:59;4.97;;;3.78;;
64520;SDS011;50896;46.714;17.322;2023-06-10T13:47:26;4.38;;;3.72;;
64520;SDS011;50896;46.714;17.322;2023-06-10T13:49:53;4.05;;;3.75;;
64520;SDS011;50896;46.714;17.322;2023-06-10T13:52:20;4.47;;;3.85;;
64520;SDS011;50896;46.714;17.322;2023-06-10T13:54:47;6.20;;;3.85;;
64520;SDS011;50896;46.714;17.322;2023-06-10T13:57:13;5.10;;;4.03;;
64520;SDS011;50896;46.714;17.322;2023-06-10T13:59:40;4.50;;;4.10;;
64520;SDS011;50896;46.714;17.322;2023-06-10T14:02:07;4.60;;;3.78;;
64520;SDS011;50896;46.714;17.322;2023-06-10T14:04:35;5.30;;;3.63;;
64520;SDS011;50896;46.714;17.322;2023-06-10T14:07:01;4.60;;;3.95;;
64520;SDS011;50896;46.714;17.322;2023-06-10T14:09:28;4.30;;;3.90;;
64520;SDS011;50896;46.714;17.322;2023-06-10T14:11:56;4.22;;;3.85;;
64520;SDS011;50896;46.714;17.322;2023-06-10T14:14:22;4.35;;;3.55;;
64520;SDS011;50896;46.714;17.322;2023-06-10T14:16:49;4.18;;;3.78;;
64520;SDS011;50896;46.714;17.322;2023-06-10T14:19:16;6.32;;;4.10;;
64520;SDS011;50896;46.714;17.322;2023-06-10T14:21:43;4.22;;;3.78;;
64520;SDS011;50896;46.714;17.322;2023-06-10T14:24:10;4.55;;;4.13;;
64520;SDS011;50896;46.714;17.322;2023-06-10T14:26:37;5.15;;;4.10;;
64520;SDS011;50896;46.714;17.322;2023-06-10T14:29:03;4.20;;;3.50;;
64520;SDS011;50896;46.714;17.322;2023-06-10T14:31:30;4.93;;;3.30;;
64520;SDS011;50896;46.714;17.322;2023-06-10T14:33:57;3.63;;;3.30;;
64520;SDS011;50896;46.714;17.322;2023-06-10T14:36:25;4.35;;;3.40;;
64520;SDS011;50896;46.714;17.322;2023-06-10T14:38:52;6.00;;;3.90;;
64520;SDS011;50896;46.714;17.322;2023-06-10T14:41:20;3.50;;;3.05;;
64520;SDS011;50896;46.714;17.322;2023-06-10T14:43:48;3.67;;;3.30;;
64520;SDS011;50896;46.714;17.322;2023-06-10T14:46:15;3.53;;;3.20;;
64520;SDS011;50896;46.714;17.322;2023-06-10T14:48:42;5.10;;;2.90;;
64520;SDS011;50896;46.714;17.322;2023-06-10T14:51:09;4.88;;;3.15;;
64520;SDS011;50896;46.714;17.322;2023-06-10T14:53:36;6.25;;;3.30;;
64520;SDS011;50896;46.714;17.322;2023-06-10T14:56:03;3.45;;;3.15;;
64520;SDS011;50896;46.714;17.322;2023-06-10T14:58:30;3.55;;;3.00;;
64520;SDS011;50896;46.714;17.322;2023-06-10T15:00:57;4.97;;;3.22;;
64520;SDS011;50896;46.714;17.322;2023-06-10T15:03:24;3.00;;;2.80;;
64520;SDS011;50896;46.714;17.322;2023-06-10T15:05:50;3.25;;;2.90;;
64520;SDS011;50896;46.714;17.322;2023-06-10T15:08:17;4.22;;;3.20;;
64520;SDS011;50896;46.714;17.322;2023-06-10T15:10:44;3.83;;;3.30;;
64520;SDS011;50896;46.714;17.322;2023-06-10T15:13:11;3.88;;;3.47;;
64520;SDS011;50896;46.714;17.322;2023-06-10T15:15:38;3.88;;;3.58;;